Time;durP1;ratioP1;P1;durP2;ratioP2;P2;SDS_P1;SDS_P2;PMS_P1;PMS_P2;Temp;Humidity;BMP_temperature;BMP_pressure;BME280_temperature;BME280_humidity;BME280_pressure;Samples;Min_cycle;Max_cycle;Signal;HPM_P1;HPM_P2
2023/07/06 00:02:00;;;;;;;83.18;52.65;;;17.60;75.00;;;;;;4934200;28;90956;-43
2023/07/06 00:04:26;;;;;;;82.82;52.72;;;17.50;73.90;;;;;;4942904;28;89675;-43
2023/07/06 00:06:52;;;;;;;81.88;52.45;;;17.60;74.30;;;;;;4941027;28;92956;-42
2023/07/06 00:09:18;;;;;;;82.25;52.63;;;17.50;74.10;;;;;;4937975;28;89876;-42
2023/07/06 00:11:44;;;;;;;82.43;52.63;;;17.50;74.10;;;;;;4939798;28;89854;-44
2023/07/06 00:14:12;;;;;;;83.53;52.60;;;17.50;75.10;;;;;;4935814;28;91209;-42
2023/07/06 00:16:41;;;;;;;82.55;52.75;;;17.50;74.30;;;;;;4934653;28;89813;-45
2023/07/06 00:19:08;;;;;;;83.25;52.58;;;17.50;74.70;;;;;;4939009;28;89929;-43
2023/07/06 00:21:34;;;;;;;82.30;52.60;;;17.40;74.80;;;;;;4943932;28;89883;-43
2023/07/06 00:24:00;;;;;;;83.43;52.60;;;17.40;74.70;;;;;;4935035;28;89963;-42
2023/07/06 00:26:26;;;;;;;81.55;52.50;;;17.40;74.40;;;;;;4938008;28;90936;-43
2023/07/06 00:28:53;;;;;;;81.57;52.25;;;17.40;74.50;;;;;;4936028;28;90032;-43
2023/07/06 00:31:32;;;;;;;81.35;52.47;;;17.30;75.10;;;;;;4941817;28;89548;-43
2023/07/06 00:34:04;;;;;;;81.97;52.60;;;17.30;74.50;;;;;;4936317;28;89830;-42
2023/07/06 00:36:35;;;;;;;83.35;52.60;;;17.30;74.90;;;;;;4936465;28;89790;-42
2023/07/06 00:39:03;;;;;;;83.43;52.80;;;17.30;74.50;;;;;;4937676;28;90146;-42
2023/07/06 00:41:30;;;;;;;81.90;52.75;;;17.20;74.80;;;;;;4931913;28;91079;-45
2023/07/06 00:43:56;;;;;;;82.75;52.67;;;17.20;74.90;;;;;;4940908;28;88917;-44
2023/07/06 00:46:29;;;;;;;81.40;52.30;;;17.20;75.20;;;;;;4944296;28;90059;-42
2023/07/06 00:48:57;;;;;;;81.28;52.28;;;17.20;76.00;;;;;;4942671;28;89660;-45
2023/07/06 00:51:34;;;;;;;80.75;52.10;;;17.20;75.10;;;;;;4950244;28;90737;-43
2023/07/06 00:54:08;;;;;;;81.00;52.45;;;17.20;77.30;;;;;;4948269;28;90297;-42
2023/07/06 00:56:39;;;;;;;82.88;52.35;;;17.10;76.10;;;;;;4935839;28;89978;-43
2023/07/06 00:59:09;;;;;;;82.68;52.63;;;17.10;75.20;;;;;;4939013;28;92659;-43
2023/07/06 01:01:37;;;;;;;79.97;52.05;;;17.10;74.80;;;;;;4938023;28;89768;-43
2023/07/06 01:04:08;;;;;;;81.75;52.40;;;17.10;76.20;;;;;;4931672;28;90617;-42
2023/07/06 01:06:41;;;;;;;82.15;52.38;;;17.00;75.10;;;;;;4946686;28;89896;-43
2023/07/06 01:09:07;;;;;;;81.03;52.38;;;17.00;75.30;;;;;;4936646;28;90092;-45
2023/07/06 01:11:37;;;;;;;81.53;52.53;;;17.00;75.30;;;;;;4938188;28;89489;-43
2023/07/06 01:14:03;;;;;;;82.32;52.70;;;17.00;75.60;;;;;;4937830;28;90202;-43
2023/07/06 01:16:59;;;;;;;82.78;52.50;;;17.00;75.50;;;;;;4941940;28;91457;-42
2023/07/06 01:19:43;;;;;;;80.45;52.28;;;16.90;75.20;;;;;;4938267;28;90329;-42
2023/07/06 01:22:36;;;;;;;81.30;52.38;;;16.90;75.70;;;;;;4936486;28;90474;-42
2023/07/06 01:25:35;;;;;;;80.75;52.17;;;16.90;75.80;;;;;;4933557;28;89642;-42
2023/07/06 01:28:34;;;;;;;81.00;51.97;;;16.90;76.90;;;;;;4940770;28;89635;-42
2023/07/06 01:31:39;;;;;;;80.55;52.15;;;16.90;75.50;;;;;;4937452;28;89588;-43
2023/07/06 01:34:48;;;;;;;80.85;52.00;;;16.80;75.50;;;;;;4876744;28;90007;-43
2023/07/06 01:37:30;;;;;;;81.07;52.38;;;16.80;75.70;;;;;;4876852;28;89360;-43
2023/07/06 01:40:00;;;;;;;81.30;52.05;;;16.80;75.60;;;;;;4930166;28;89827;-43
2023/07/06 01:42:31;;;;;;;82.00;52.70;;;16.80;75.90;;;;;;4929777;28;90479;-43
2023/07/06 01:45:02;;;;;;;84.30;52.72;;;16.80;76.00;;;;;;4943767;28;90838;-42
2023/07/06 01:47:29;;;;;;;82.10;52.35;;;16.80;76.80;;;;;;4945475;28;90102;-44
2023/07/06 01:49:56;;;;;;;81.43;52.30;;;16.80;75.90;;;;;;4918553;28;90354;-43
2023/07/06 01:52:40;;;;;;;80.60;52.47;;;16.80;75.90;;;;;;4945963;28;90526;-43
2023/07/06 01:55:20;;;;;;;80.88;52.35;;;16.70;75.90;;;;;;4942062;28;89449;-42
2023/07/06 01:58:12;;;;;;;83.72;52.40;;;16.70;75.80;;;;;;4945862;28;89564;-42
2023/07/06 02:00:43;;;;;;;82.10;52.35;;;16.60;75.80;;;;;;4943133;28;90266;-42
2023/07/06 02:03:09;;;;;;;80.47;52.45;;;16.60;76.10;;;;;;4945976;28;91048;-43
2023/07/06 02:05:37;;;;;;;79.95;51.90;;;16.60;75.70;;;;;;4943029;28;90353;-42
2023/07/06 02:08:06;;;;;;;79.72;52.22;;;16.60;76.10;;;;;;4938123;28;89811;-44
2023/07/06 02:10:32;;;;;;;80.20;51.95;;;16.60;77.40;;;;;;4941784;28;90526;-44
2023/07/06 02:12:57;;;;;;;80.82;52.22;;;16.60;75.90;;;;;;4946148;28;91111;-47
2023/07/06 02:15:24;;;;;;;81.00;52.33;;;16.60;76.50;;;;;;4947555;28;89489;-43
2023/07/06 02:17:50;;;;;;;80.95;52.42;;;16.60;76.80;;;;;;4940164;28;90523;-46
2023/07/06 02:20:18;;;;;;;80.47;52.15;;;16.60;77.10;;;;;;4939701;28;92403;-43
2023/07/06 02:22:45;;;;;;;80.57;52.25;;;16.50;76.20;;;;;;4939282;28;94822;-46
2023/07/06 02:25:11;;;;;;;81.63;52.10;;;16.50;76.10;;;;;;4935627;28;89845;-43
2023/07/06 02:27:37;;;;;;;80.80;52.40;;;16.50;76.20;;;;;;4950338;28;89049;-46
2023/07/06 02:30:04;;;;;;;80.85;52.15;;;16.50;76.40;;;;;;4945991;28;90178;-44
2023/07/06 02:32:30;;;;;;;83.10;52.42;;;16.50;79.20;;;;;;4938072;28;90481;-45
2023/07/06 02:34:56;;;;;;;79.65;51.92;;;16.50;77.10;;;;;;4940313;28;91287;-44
2023/07/06 02:37:23;;;;;;;81.18;51.97;;;16.40;76.10;;;;;;4936504;28;89697;-45
2023/07/06 02:39:50;;;;;;;79.72;51.85;;;16.40;76.70;;;;;;4945040;28;89813;-43
2023/07/06 02:42:16;;;;;;;81.20;52.45;;;16.40;76.10;;;;;;4932229;28;96703;-43
2023/07/06 02:44:43;;;;;;;79.68;51.95;;;16.40;76.30;;;;;;4944219;28;89925;-46
2023/07/06 02:47:09;;;;;;;81.53;52.22;;;16.40;76.30;;;;;;4943586;28;89613;-45
2023/07/06 02:49:35;;;;;;;81.07;52.05;;;16.40;76.20;;;;;;4942040;28;90257;-44
2023/07/06 02:52:01;;;;;;;81.78;52.28;;;16.40;76.40;;;;;;4947562;28;90333;-44
2023/07/06 02:54:27;;;;;;;82.18;52.00;;;16.30;76.60;;;;;;4941338;28;90048;-45
2023/07/06 02:56:53;;;;;;;82.00;52.55;;;16.30;76.30;;;;;;4939148;28;91120;-43
2023/07/06 02:59:19;;;;;;;80.82;52.08;;;16.30;76.50;;;;;;4933483;28;91469;-44
2023/07/06 03:01:45;;;;;;;81.25;52.42;;;16.30;76.30;;;;;;4919423;28;90698;-42
2023/07/06 03:04:11;;;;;;;82.45;52.30;;;16.30;76.50;;;;;;4945874;28;89544;-42
2023/07/06 03:06:38;;;;;;;80.65;52.47;;;16.20;76.40;;;;;;4939604;28;89611;-42
2023/07/06 03:09:05;;;;;;;80.68;51.95;;;16.30;76.40;;;;;;4940523;28;90403;-42
2023/07/06 03:11:32;;;;;;;81.15;52.30;;;16.30;76.40;;;;;;4930788;28;89778;-44
2023/07/06 03:13:59;;;;;;;80.85;51.95;;;16.20;76.50;;;;;;4943251;28;89779;-42
2023/07/06 03:16:25;;;;;;;80.45;52.15;;;16.20;76.60;;;;;;4936877;28;88821;-42
2023/07/06 03:18:51;;;;;;;81.03;52.33;;;16.20;76.40;;;;;;4943050;28;89806;-44
2023/07/06 03:21:16;;;;;;;80.13;52.42;;;16.20;76.50;;;;;;4938785;28;89992;-43
2023/07/06 03:23:42;;;;;;;81.00;51.85;;;16.20;76.20;;;;;;4937478;28;91058;-42
2023/07/06 03:26:08;;;;;;;80.22;52.22;;;16.10;76.60;;;;;;4942364;28;89561;-43
2023/07/06 03:28:35;;;;;;;81.20;51.63;;;16.10;76.60;;;;;;4947220;28;89494;-43
2023/07/06 03:31:01;;;;;;;81.80;52.20;;;16.10;77.20;;;;;;4945016;28;89467;-42
2023/07/06 03:33:27;;;;;;;80.43;52.15;;;16.10;76.40;;;;;;4940254;28;89520;-42
2023/07/06 03:35:54;;;;;;;80.00;52.17;;;16.10;76.80;;;;;;4939135;28;93050;-42
2023/07/06 03:38:21;;;;;;;81.13;52.40;;;16.10;76.60;;;;;;4943254;28;90084;-42
2023/07/06 03:40:50;;;;;;;82.57;52.38;;;16.10;76.70;;;;;;4935326;28;88956;-42
2023/07/06 03:43:16;;;;;;;84.20;52.65;;;16.10;77.10;;;;;;4938339;28;89819;-43
2023/07/06 03:45:46;;;;;;;79.68;52.05;;;16.10;76.50;;;;;;4940591;28;89487;-42
2023/07/06 03:48:12;;;;;;;80.90;51.67;;;16.10;76.40;;;;;;4938760;28;91010;-44
2023/07/06 03:50:38;;;;;;;81.43;51.80;;;16.10;76.60;;;;;;4940805;28;90995;-43
2023/07/06 03:53:04;;;;;;;80.35;52.30;;;16.00;76.90;;;;;;4945778;28;90981;-43
2023/07/06 03:55:29;;;;;;;79.22;52.08;;;16.00;76.50;;;;;;4941113;28;90273;-43
2023/07/06 03:57:57;;;;;;;79.60;52.03;;;16.00;76.50;;;;;;4944032;28;90186;-43
2023/07/06 04:00:24;;;;;;;80.68;52.05;;;16.00;76.50;;;;;;4936698;28;89618;-43
2023/07/06 04:02:54;;;;;;;79.65;51.92;;;16.00;76.60;;;;;;4944131;28;89527;-44
2023/07/06 04:05:23;;;;;;;79.65;52.03;;;16.00;76.50;;;;;;4933828;28;89223;-44
2023/07/06 04:07:52;;;;;;;80.90;51.78;;;16.00;76.40;;;;;;4936304;28;90041;-42
2023/07/06 04:10:21;;;;;;;80.28;51.85;;;16.00;77.20;;;;;;4928115;28;90076;-42
2023/07/06 04:12:48;;;;;;;81.18;52.63;;;16.00;77.50;;;;;;4944092;28;90435;-42
2023/07/06 04:15:17;;;;;;;80.28;52.25;;;16.00;76.70;;;;;;4935999;28;89573;-42
2023/07/06 04:17:48;;;;;;;81.40;52.13;;;16.00;76.40;;;;;;4945716;28;89366;-41
2023/07/06 04:20:19;;;;;;;;;;;16.00;77.20;;;;;;4940942;28;91200;-42
2023/07/06 04:22:46;;;;;;;81.32;51.78;;;16.00;76.50;;;;;;4941903;28;91575;-43
2023/07/06 04:25:12;;;;;;;80.85;52.13;;;16.00;76.90;;;;;;4935877;28;90592;-42
2023/07/06 04:27:38;;;;;;;79.90;51.95;;;16.00;76.70;;;;;;4947440;28;89996;-43
2023/07/06 04:30:04;;;;;;;80.28;52.17;;;16.00;78.10;;;;;;4939870;28;88686;-43
2023/07/06 04:32:31;;;;;;;80.95;52.30;;;16.00;76.50;;;;;;4942312;28;89900;-43
2023/07/06 04:34:58;;;;;;;81.32;52.15;;;16.10;77.40;;;;;;4927374;28;89628;-43
2023/07/06 04:37:23;;;;;;;81.93;52.40;;;16.10;76.60;;;;;;4943624;28;90513;-42
2023/07/06 04:39:49;;;;;;;82.25;52.33;;;16.10;76.50;;;;;;4932020;28;90117;-43
2023/07/06 04:42:14;;;;;;;80.68;52.25;;;16.10;76.20;;;;;;4928368;28;92381;-42
2023/07/06 04:44:40;;;;;;;79.70;52.40;;;16.20;77.00;;;;;;4933872;28;89616;-42
2023/07/06 04:47:06;;;;;;;80.00;52.03;;;16.20;76.50;;;;;;4937894;28;90661;-42
2023/07/06 04:49:31;;;;;;;80.82;52.08;;;16.30;76.50;;;;;;4938362;28;90400;-43
2023/07/06 04:51:57;;;;;;;80.57;52.35;;;16.30;76.40;;;;;;4937843;28;89740;-42
2023/07/06 04:54:23;;;;;;;80.97;51.97;;;16.30;76.80;;;;;;4942303;28;89182;-41
2023/07/06 04:56:48;;;;;;;81.60;52.35;;;16.30;76.20;;;;;;4939277;28;91452;-43
2023/07/06 04:59:14;;;;;;;81.43;52.28;;;16.30;76.60;;;;;;4933771;28;90474;-42
2023/07/06 05:01:40;;;;;;;79.78;51.97;;;16.40;75.60;;;;;;4940321;28;92569;-44
2023/07/06 05:04:05;;;;;;;82.00;52.35;;;16.40;75.60;;;;;;4947845;28;89729;-43
2023/07/06 05:06:31;;;;;;;80.65;52.22;;;16.40;76.10;;;;;;4931092;28;91241;-43
2023/07/06 05:08:57;;;;;;;81.47;51.67;;;16.40;75.60;;;;;;4934243;28;92040;-43
2023/07/06 05:11:25;;;;;;;81.30;52.42;;;16.50;77.10;;;;;;4935962;28;89561;-43
2023/07/06 05:13:50;;;;;;;81.63;52.28;;;16.50;75.70;;;;;;4930635;28;90071;-43
2023/07/06 05:16:16;;;;;;;81.57;52.67;;;16.50;76.20;;;;;;4922623;28;91402;-42
2023/07/06 05:18:43;;;;;;;82.35;52.90;;;16.60;76.30;;;;;;4935374;28;89282;-43
2023/07/06 05:21:10;;;;;;;81.15;52.45;;;16.60;75.90;;;;;;4936992;28;90463;-43
2023/07/06 05:23:35;;;;;;;80.72;52.25;;;16.60;75.20;;;;;;4934167;28;89849;-43
2023/07/06 05:26:03;;;;;;;81.60;52.22;;;16.70;75.50;;;;;;4926004;28;91822;-43
2023/07/06 05:28:29;;;;;;;81.60;52.17;;;16.70;75.80;;;;;;4925475;28;90862;-44
2023/07/06 05:30:55;;;;;;;83.10;52.80;;;16.70;74.80;;;;;;4920922;28;92317;-43
2023/07/06 05:33:21;;;;;;;80.55;52.35;;;16.80;75.80;;;;;;4926376;28;91524;-42
2023/07/06 05:35:47;;;;;;;81.65;52.30;;;16.80;75.40;;;;;;4927627;28;90812;-43
2023/07/06 05:38:13;;;;;;;80.95;52.50;;;16.80;75.20;;;;;;4932064;28;90426;-42
2023/07/06 05:40:40;;;;;;;81.75;52.72;;;16.90;75.10;;;;;;4938998;28;90370;-45
2023/07/06 05:43:07;;;;;;;80.65;52.75;;;16.90;74.50;;;;;;4935821;28;88813;-42
2023/07/06 05:45:33;;;;;;;82.03;52.30;;;16.90;76.30;;;;;;4940688;28;89789;-44
2023/07/06 05:47:58;;;;;;;80.93;52.67;;;16.90;74.30;;;;;;4937260;28;90806;-42
2023/07/06 05:50:24;;;;;;;81.78;52.45;;;17.00;74.00;;;;;;4939128;28;91027;-44
2023/07/06 05:52:49;;;;;;;81.28;52.35;;;17.00;74.10;;;;;;4939375;28;90022;-43
2023/07/06 05:55:15;;;;;;;83.22;52.63;;;17.10;74.90;;;;;;4945198;28;90108;-45
2023/07/06 05:57:43;;;;;;;81.90;52.85;;;17.10;74.70;;;;;;4939951;28;89812;-43
2023/07/06 06:00:12;;;;;;;82.93;52.88;;;17.10;74.90;;;;;;4943689;28;89563;-44
2023/07/06 06:02:39;;;;;;;80.72;52.55;;;17.10;74.50;;;;;;4935940;28;90134;-45
2023/07/06 06:05:05;;;;;;;80.60;52.33;;;17.20;75.40;;;;;;4939535;28;90879;-43
2023/07/06 06:07:33;;;;;;;82.63;53.03;;;17.20;73.40;;;;;;4941400;28;91272;-47
2023/07/06 06:09:59;;;;;;;83.82;52.75;;;17.20;74.30;;;;;;4941119;28;90102;-45
2023/07/06 06:12:27;;;;;;;86.28;52.97;;;17.30;73.60;;;;;;4945613;28;89553;-45
2023/07/06 06:14:53;;;;;;;82.88;52.83;;;17.30;77.20;;;;;;4943997;28;90664;-44
2023/07/06 06:17:19;;;;;;;83.22;53.20;;;17.30;73.30;;;;;;4941687;28;90027;-43
2023/07/06 06:19:46;;;;;;;84.25;53.40;;;17.40;74.60;;;;;;4940462;28;90144;-44
2023/07/06 06:22:13;;;;;;;83.28;52.90;;;17.40;73.70;;;;;;4943935;28;89632;-43
2023/07/06 06:24:39;;;;;;;84.38;53.05;;;17.40;74.30;;;;;;4947223;28;89768;-43
2023/07/06 06:27:05;;;;;;;84.55;53.45;;;17.50;73.00;;;;;;4941380;28;89444;-45
2023/07/06 06:29:32;;;;;;;83.95;53.35;;;17.50;73.10;;;;;;4946443;28;91501;-43
2023/07/06 06:31:59;;;;;;;84.65;53.65;;;17.50;75.00;;;;;;4939637;28;89274;-43
2023/07/06 06:34:25;;;;;;;82.68;53.25;;;17.60;73.50;;;;;;4948539;28;90017;-45
2023/07/06 06:36:51;;;;;;;85.00;53.47;;;17.60;72.80;;;;;;4938900;28;93711;-43
2023/07/06 06:39:17;;;;;;;86.50;53.35;;;17.60;73.20;;;;;;4940207;28;90634;-45
2023/07/06 06:41:44;;;;;;;83.55;53.20;;;17.60;74.70;;;;;;4938286;28;92879;-44
2023/07/06 06:44:14;;;;;;;86.43;53.58;;;17.70;72.90;;;;;;4941316;28;89775;-43
2023/07/06 06:46:40;;;;;;;87.63;53.30;;;17.70;72.70;;;;;;4937589;28;90613;-43
2023/07/06 06:49:06;;;;;;;88.30;53.65;;;17.70;72.30;;;;;;4940869;28;89973;-45
2023/07/06 06:51:32;;;;;;;84.60;53.30;;;17.80;73.50;;;;;;4938726;28;90113;-44
2023/07/06 06:53:58;;;;;;;86.78;53.97;;;17.80;71.90;;;;;;4940879;28;89986;-44
2023/07/06 06:56:24;;;;;;;86.35;53.88;;;17.90;77.50;;;;;;4942960;28;92340;-44
2023/07/06 06:58:51;;;;;;;86.25;53.78;;;17.90;73.50;;;;;;4943915;28;95703;-44
2023/07/06 07:01:17;;;;;;;84.85;53.60;;;17.90;71.60;;;;;;4932634;28;89542;-46
2023/07/06 07:03:44;;;;;;;86.05;53.38;;;17.90;71.80;;;;;;4934027;28;90995;-46
2023/07/06 07:06:11;;;;;;;88.50;53.63;;;17.90;72.40;;;;;;4932414;28;90262;-49
2023/07/06 07:08:50;;;;;;;86.90;54.05;;;18.00;74.00;;;;;;4947494;28;90268;-44
2023/07/06 07:11:20;;;;;;;85.50;53.75;;;18.00;72.40;;;;;;4937269;28;89919;-41
2023/07/06 07:13:48;;;;;;;87.18;53.97;;;18.00;73.00;;;;;;4930412;28;90170;-43
2023/07/06 07:16:14;;;;;;;85.47;53.65;;;18.10;72.60;;;;;;4939715;28;89538;-45
2023/07/06 07:18:42;;;;;;;86.22;54.00;;;18.10;73.10;;;;;;4929059;28;89980;-43
2023/07/06 07:21:09;;;;;;;88.65;54.25;;;18.10;72.90;;;;;;4932463;28;88967;-43
2023/07/06 07:23:41;;;;;;;88.13;54.50;;;18.20;74.10;;;;;;4924741;28;92071;-43
2023/07/06 07:26:08;;;;;;;93.55;55.00;;;18.20;73.10;;;;;;4931269;28;94460;-42
2023/07/06 07:28:34;;;;;;;89.55;54.47;;;18.20;73.20;;;;;;4935607;28;94002;-43
2023/07/06 07:31:01;;;;;;;87.70;53.75;;;18.30;72.00;;;;;;4934137;28;89763;-42
2023/07/06 07:33:28;;;;;;;88.45;54.85;;;18.40;70.90;;;;;;4936649;28;91301;-45
2023/07/06 07:35:57;;;;;;;91.13;55.13;;;18.40;74.90;;;;;;4930311;28;90017;-42
2023/07/06 07:38:23;;;;;;;88.57;54.55;;;18.50;75.30;;;;;;4934726;28;90115;-43
2023/07/06 07:40:57;;;;;;;85.95;54.30;;;18.50;72.50;;;;;;4932698;28;89640;-43
2023/07/06 07:43:28;;;;;;;89.32;54.38;;;18.60;73.10;;;;;;4913955;28;93266;-44
2023/07/06 07:46:04;;;;;;;91.20;55.17;;;18.60;74.00;;;;;;4929951;28;89629;-42
2023/07/06 07:48:33;;;;;;;88.15;54.58;;;18.70;74.60;;;;;;4923465;28;90603;-44
2023/07/06 07:51:01;;;;;;;88.75;54.53;;;18.80;70.90;;;;;;4933962;28;89718;-43
2023/07/06 07:53:29;;;;;;;88.38;54.60;;;18.80;71.40;;;;;;4931673;28;90852;-45
2023/07/06 07:55:56;;;;;;;121.07;57.05;;;19.00;74.80;;;;;;4931605;28;90199;-44
2023/07/06 07:58:23;;;;;;;96.35;55.33;;;19.40;73.10;;;;;;4928327;28;89591;-41
2023/07/06 08:00:55;;;;;;;97.75;55.75;;;19.60;72.00;;;;;;4937244;28;89417;-42
2023/07/06 08:03:21;;;;;;;99.18;55.90;;;19.80;71.70;;;;;;4931976;28;90404;-46
2023/07/06 08:05:47;;;;;;;98.05;55.55;;;19.90;70.50;;;;;;4927575;28;90280;-45
2023/07/06 08:08:13;;;;;;;96.88;55.85;;;20.00;70.00;;;;;;4940602;28;89858;-47
2023/07/06 08:10:40;;;;;;;95.10;55.55;;;20.00;67.40;;;;;;4946559;28;89533;-42
2023/07/06 08:13:09;;;;;;;95.03;55.33;;;19.90;67.30;;;;;;4932986;28;91132;-40
2023/07/06 08:15:39;;;;;;;97.93;55.83;;;19.90;69.00;;;;;;4933964;28;91655;-42
2023/07/06 08:18:08;;;;;;;98.40;55.67;;;20.00;70.00;;;;;;4925694;28;90783;-42
2023/07/06 08:20:34;;;;;;;96.30;55.85;;;19.90;68.30;;;;;;4932605;28;89904;-41
2023/07/06 08:23:02;;;;;;;101.18;56.25;;;20.00;67.80;;;;;;4933155;28;90566;-42
2023/07/06 08:25:28;;;;;;;96.03;55.63;;;20.10;68.40;;;;;;4935440;28;89273;-42
2023/07/06 08:27:57;;;;;;;98.05;55.67;;;20.30;66.70;;;;;;4940588;28;89596;-41
2023/07/06 08:30:23;;;;;;;97.78;56.03;;;20.40;68.90;;;;;;4924992;28;91342;-46
2023/07/06 08:32:49;;;;;;;99.07;55.67;;;20.40;67.20;;;;;;4936040;28;90207;-43
2023/07/06 08:35:18;;;;;;;99.05;55.95;;;20.50;66.70;;;;;;4931740;28;89391;-43
2023/07/06 08:37:44;;;;;;;100.38;55.53;;;20.70;67.10;;;;;;4932424;28;90345;-42
2023/07/06 08:40:17;;;;;;;93.93;55.17;;;20.70;65.50;;;;;;4941379;28;90036;-42
2023/07/06 08:42:45;;;;;;;93.90;55.45;;;20.70;65.10;;;;;;4931243;28;92866;-42
2023/07/06 08:45:34;;;;;;;98.03;55.25;;;20.80;65.30;;;;;;4933120;28;91073;-42
2023/07/06 08:48:00;;;;;;;95.15;55.10;;;20.80;65.70;;;;;;4925666;28;89977;-42
2023/07/06 08:50:31;;;;;;;94.80;55.22;;;20.60;62.20;;;;;;4939221;28;89814;-43
2023/07/06 08:52:57;;;;;;;96.38;55.35;;;20.70;62.70;;;;;;4938508;28;94119;-42
2023/07/06 08:55:24;;;;;;;94.07;55.08;;;20.70;64.40;;;;;;4943265;28;90172;-42
2023/07/06 08:57:51;;;;;;;96.18;55.40;;;20.80;64.90;;;;;;4938808;28;91557;-42
2023/07/06 09:00:18;;;;;;;97.85;55.13;;;20.80;64.80;;;;;;4933121;28;90311;-42
2023/07/06 09:02:46;;;;;;;93.38;54.65;;;20.80;64.80;;;;;;4932710;28;90375;-41
2023/07/06 09:05:13;;;;;;;92.72;55.13;;;20.80;62.80;;;;;;4935087;28;89607;-43
2023/07/06 09:07:42;;;;;;;93.30;55.03;;;20.90;63.90;;;;;;4940878;28;90495;-43
2023/07/06 09:10:23;;;;;;;95.30;55.45;;;21.10;64.30;;;;;;4938940;28;89989;-44
2023/07/06 09:12:51;;;;;;;96.90;55.58;;;21.20;61.50;;;;;;4931346;28;90018;-42
2023/07/06 09:15:18;;;;;;;94.65;55.15;;;21.30;61.30;;;;;;4930860;28;90161;-41
2023/07/06 09:17:50;;;;;;;94.93;55.35;;;21.40;61.30;;;;;;4936951;28;89940;-41
2023/07/06 09:20:20;;;;;;;97.25;55.97;;;21.50;60.10;;;;;;4930699;28;91845;-42
2023/07/06 09:22:47;;;;;;;92.90;55.55;;;21.60;60.50;;;;;;4940947;28;90131;-43
2023/07/06 09:25:17;;;;;;;94.28;55.65;;;21.70;60.00;;;;;;4931455;28;89851;-42
2023/07/06 09:27:47;;;;;;;94.55;55.55;;;21.70;60.40;;;;;;4936595;28;89847;-44
2023/07/06 09:30:31;;;;;;;93.28;55.45;;;21.60;59.80;;;;;;4930073;28;89782;-43
2023/07/06 09:33:05;;;;;;;95.70;55.33;;;21.60;59.50;;;;;;4930162;28;91013;-43
2023/07/06 09:35:36;;;;;;;95.28;55.60;;;21.60;60.70;;;;;;4935173;28;89716;-41
2023/07/06 09:38:04;;;;;;;95.03;55.53;;;21.50;58.60;;;;;;4933929;28;89805;-44
2023/07/06 09:40:30;;;;;;;95.95;55.22;;;21.50;60.90;;;;;;4942466;28;91231;-42
2023/07/06 09:42:56;;;;;;;97.53;55.80;;;21.60;60.40;;;;;;4928821;28;90368;-42
2023/07/06 09:45:28;;;;;;;95.95;55.67;;;21.70;60.10;;;;;;4928313;28;91436;-40
2023/07/06 09:48:03;;;;;;;93.35;55.47;;;21.80;59.80;;;;;;4922401;28;91318;-41
2023/07/06 09:50:43;;;;;;;99.85;56.05;;;21.90;56.30;;;;;;4935530;28;89509;-44
2023/07/06 09:53:19;;;;;;;97.78;56.05;;;22.00;59.30;;;;;;4926861;28;90076;-41
2023/07/06 09:55:44;;;;;;;94.35;55.92;;;22.10;59.20;;;;;;4934475;28;90337;-41
2023/07/06 09:58:23;;;;;;;99.70;56.22;;;22.20;59.40;;;;;;4945305;28;91229;-41
2023/07/06 10:00:55;;;;;;;93.80;55.65;;;22.30;59.50;;;;;;4938860;28;92169;-43
2023/07/06 10:03:42;;;;;;;94.32;55.75;;;22.30;59.20;;;;;;4929152;28;89650;-44
2023/07/06 10:06:43;;;;;;;93.97;55.33;;;22.20;58.00;;;;;;4928947;28;89971;-44
2023/07/06 10:09:33;;;;;;;96.32;55.65;;;22.10;58.30;;;;;;4936517;28;89664;-41
2023/07/06 10:12:14;;;;;;;96.28;55.50;;;22.30;59.40;;;;;;4938878;28;90287;-43
2023/07/06 10:14:48;;;;;;;95.85;55.88;;;22.30;58.30;;;;;;4926896;28;89771;-41
2023/07/06 10:17:35;;;;;;;94.00;55.20;;;22.40;58.50;;;;;;4931245;28;90139;-41
2023/07/06 10:20:18;;;;;;;94.05;55.80;;;22.50;59.00;;;;;;4926362;28;89935;-43
2023/07/06 10:23:26;;;;;;;94.82;56.03;;;22.70;58.20;;;;;;4932210;28;89966;-45
2023/07/06 10:26:26;;;;;;;96.38;55.90;;;22.70;57.50;;;;;;4941027;28;91256;-43
2023/07/06 10:29:01;;;;;;;94.43;55.58;;;22.70;58.30;;;;;;4937106;28;91026;-45
2023/07/06 10:31:42;;;;;;;95.20;55.50;;;22.60;58.40;;;;;;4931846;28;90679;-46
2023/07/06 10:34:32;;;;;;;96.65;55.95;;;22.50;57.50;;;;;;4926376;28;89812;-42
2023/07/06 10:37:03;;;;;;;93.40;55.67;;;22.60;58.60;;;;;;4928396;28;96840;-43
2023/07/06 10:39:28;;;;;;;;;;;22.70;56.90;;;;;;4933760;28;89557;-43
2023/07/06 10:42:19;;;;;;;95.53;55.33;;;22.70;58.30;;;;;;4935118;28;90968;-43
2023/07/06 10:44:49;;;;;;;97.55;56.25;;;22.70;54.50;;;;;;4943677;28;88784;-42
2023/07/06 10:47:33;;;;;;;96.43;55.47;;;22.70;56.50;;;;;;4930665;28;89705;-42
2023/07/06 10:50:07;;;;;;;98.40;55.50;;;22.50;55.20;;;;;;4939071;28;89786;-42
2023/07/06 10:52:43;;;;;;;93.60;55.35;;;22.50;54.70;;;;;;4928526;28;90729;-42
2023/07/06 10:55:18;;;;;;;93.80;54.92;;;22.40;52.70;;;;;;4943288;28;90683;-43
2023/07/06 10:58:09;;;;;;;92.75;55.42;;;22.40;55.40;;;;;;4939241;28;91557;-41
2023/07/06 11:00:37;;;;;;;93.38;55.38;;;22.40;54.80;;;;;;4937295;28;90308;-41
2023/07/06 11:03:06;;;;;;;94.03;55.30;;;22.40;55.40;;;;;;4928328;28;89729;-41
2023/07/06 11:05:50;;;;;;;91.93;55.13;;;22.40;53.70;;;;;;4929749;28;91083;-42
2023/07/06 11:08:55;;;;;;;92.78;55.05;;;22.30;54.50;;;;;;4936172;28;89639;-45
2023/07/06 11:11:21;;;;;;;92.93;54.88;;;22.30;54.80;;;;;;4941001;28;90504;-44
2023/07/06 11:13:51;;;;;;;94.30;54.97;;;22.30;53.10;;;;;;4943373;28;90421;-44
2023/07/06 11:16:46;;;;;;;91.47;54.95;;;22.30;54.40;;;;;;4940505;28;92964;-43
2023/07/06 11:19:19;;;;;;;90.97;54.58;;;22.30;54.20;;;;;;4940984;28;90893;-42
2023/07/06 11:21:52;;;;;;;92.70;55.08;;;22.20;53.90;;;;;;4945202;28;89561;-42
2023/07/06 11:24:23;;;;;;;92.00;55.08;;;22.40;55.50;;;;;;4947626;28;89751;-44
2023/07/06 11:26:54;;;;;;;;;;;22.40;55.00;;;;;;4944011;28;90805;-43
2023/07/06 11:29:24;;;;;;;93.00;55.45;;;22.50;52.40;;;;;;4938493;28;90120;-44
2023/07/06 11:32:06;;;;;;;92.60;55.30;;;22.60;53.00;;;;;;4940187;28;91394;-43
2023/07/06 11:34:38;;;;;;;93.05;55.45;;;22.70;53.10;;;;;;4933540;28;91029;-42
2023/07/06 11:37:21;;;;;;;93.28;55.65;;;22.70;53.20;;;;;;4942237;28;88734;-45
2023/07/06 11:40:07;;;;;;;95.80;55.60;;;22.70;54.10;;;;;;4943275;28;93496;-45
2023/07/06 11:42:47;;;;;;;93.05;55.40;;;22.80;53.90;;;;;;4934811;28;89843;-43
2023/07/06 11:45:39;;;;;;;92.85;55.65;;;22.80;54.30;;;;;;4930608;28;90817;-42
2023/07/06 11:48:12;;;;;;;96.35;55.65;;;22.80;52.40;;;;;;4938804;28;90893;-42
2023/07/06 11:50:39;;;;;;;93.28;55.85;;;22.90;52.50;;;;;;4941057;28;89783;-43
2023/07/06 11:53:17;;;;;;;93.28;55.50;;;22.90;51.70;;;;;;4935806;28;89940;-42
2023/07/06 11:55:50;;;;;;;95.72;55.78;;;23.00;51.50;;;;;;4936453;28;92652;-44
2023/07/06 11:58:43;;;;;;;99.25;56.05;;;23.10;50.90;;;;;;4934499;28;90008;-44
2023/07/06 12:01:31;;;;;;;93.80;55.63;;;23.20;51.30;;;;;;4947400;28;89917;-45
2023/07/06 12:03:59;;;;;;;94.18;55.70;;;23.30;50.10;;;;;;4938741;28;88922;-43
2023/07/06 12:06:25;;;;;;;93.00;55.40;;;23.30;48.10;;;;;;4935973;28;90150;-42
2023/07/06 12:08:50;;;;;;;92.55;55.47;;;23.20;51.10;;;;;;4946640;28;89770;-43
2023/07/06 12:11:22;;;;;;;93.82;55.28;;;23.20;51.50;;;;;;4930323;28;91182;-43
2023/07/06 12:13:55;;;;;;;92.80;55.38;;;23.10;50.80;;;;;;4933127;28;91120;-44
2023/07/06 12:16:30;;;;;;;95.15;55.38;;;23.10;49.20;;;;;;4932405;28;89748;-43
2023/07/06 12:19:12;;;;;;;92.20;55.35;;;23.20;49.60;;;;;;4928290;28;90979;-43
2023/07/06 12:21:43;;;;;;;93.32;55.50;;;23.10;47.60;;;;;;4931880;28;90292;-43
2023/07/06 12:24:14;;;;;;;93.20;55.42;;;23.10;48.50;;;;;;4938181;28;89683;-44
2023/07/06 12:27:02;;;;;;;93.93;55.55;;;23.10;47.80;;;;;;4936800;28;89749;-44
2023/07/06 12:29:31;;;;;;;93.28;55.60;;;23.00;49.40;;;;;;4936002;28;94775;-44
2023/07/06 12:32:13;;;;;;;91.65;55.55;;;23.00;51.40;;;;;;4931992;28;92669;-43
2023/07/06 12:34:41;;;;;;;92.78;55.67;;;23.10;49.20;;;;;;4934604;28;89740;-47
2023/07/06 12:37:10;;;;;;;92.40;55.38;;;23.10;48.40;;;;;;4929670;28;90353;-45
2023/07/06 12:39:39;;;;;;;93.43;55.53;;;23.10;47.10;;;;;;4934071;28;89794;-44
2023/07/06 12:42:07;;;;;;;94.45;55.53;;;23.10;49.60;;;;;;4932149;28;89656;-46
2023/07/06 12:44:33;;;;;;;94.40;55.63;;;23.10;50.40;;;;;;4929850;28;89545;-45
2023/07/06 12:47:20;;;;;;;96.68;55.70;;;23.10;49.70;;;;;;4931733;28;89635;-45